sensor_id;sensor_type;location;lat;lon;timestamp;pressure;altitude;pressure_sealevel;temperature;humidity
78841;BME280;68379;47.190;27.558;2023-05-07T07:37:27;100219.02;;;15.98;35.50
78841;BME280;68379;47.190;27.558;2023-05-07T07:39:56;100218.13;;;16.11;35.11
78841;BME280;68379;47.190;27.558;2023-05-07T07:42:25;100219.05;;;16.01;34.47
78841;BME280;68379;47.190;27.558;2023-05-07T07:44:54;100220.97;;;16.11;35.05
78841;BME280;68379;47.190;27.558;2023-05-07T07:47:23;100221.50;;;16.31;35.31
78841;BME280;68379;47.190;27.558;2023-05-07T07:49:52;100212.65;;;16.69;34.96
78841;BME280;68379;47.190;27.558;2023-05-07T07:52:21;100216.48;;;16.74;33.78
78841;BME280;68379;47.190;27.558;2023-05-07T07:54:50;100218.12;;;16.55;34.03
78841;BME280;68379;47.190;27.558;2023-05-07T07:57:20;100215.17;;;16.22;34.65
78841;BME280;68379;47.190;27.558;2023-05-07T07:59:50;100213.19;;;16.04;35.47
78841;BME280;68379;47.190;27.558;2023-05-07T08:02:19;100211.33;;;15.80;36.17
78841;BME280;68379;47.190;27.558;2023-05-07T08:04:48;100212.17;;;15.74;36.43
78841;BME280;68379;47.190;27.558;2023-05-07T08:07:17;100207.51;;;15.88;36.16
78841;BME280;68379;47.190;27.558;2023-05-07T08:09:49;100213.57;;;15.87;36.09
78841;BME280;68379;47.190;27.558;2023-05-07T08:12:18;100205.67;;;16.04;36.04
78841;BME280;68379;47.190;27.558;2023-05-07T08:14:47;100206.94;;;16.48;35.42
78841;BME280;68379;47.190;27.558;2023-05-07T08:17:16;100204.73;;;16.74;35.12
78841;BME280;68379;47.190;27.558;2023-05-07T08:19:45;100201.69;;;16.52;35.32
78841;BME280;68379;47.190;27.558;2023-05-07T08:22:14;100197.64;;;16.54;35.23
78841;BME280;68379;47.190;27.558;2023-05-07T08:24:44;100202.48;;;16.79;35.71
78841;BME280;68379;47.190;27.558;2023-05-07T08:27:13;100200.35;;;17.03;34.49
78841;BME280;68379;47.190;27.558;2023-05-07T08:29:42;100197.20;;;17.04;33.40
78841;BME280;68379;47.190;27.558;2023-05-07T08:32:15;100190.38;;;16.96;33.60
78841;BME280;68379;47.190;27.558;2023-05-07T08:34:45;100196.77;;;17.06;33.68
78841;BME280;68379;47.190;27.558;2023-05-07T08:37:14;100197.34;;;17.08;33.93
78841;BME280;68379;47.190;27.558;2023-05-07T08:39:43;100196.81;;;16.99;33.74
78841;BME280;68379;47.190;27.558;2023-05-07T08:42:13;100199.39;;;16.83;34.28
78841;BME280;68379;47.190;27.558;2023-05-07T08:44:46;100195.59;;;16.53;34.14
78841;BME280;68379;47.190;27.558;2023-05-07T08:47:15;100190.34;;;16.29;34.88
78841;BME280;68379;47.190;27.558;2023-05-07T08:49:45;100188.06;;;16.23;35.22
78841;BME280;68379;47.190;27.558;2023-05-07T08:52:14;100184.80;;;16.08;35.52
78841;BME280;68379;47.190;27.558;2023-05-07T08:54:44;100185.42;;;15.87;36.25
78841;BME280;68379;47.190;27.558;2023-05-07T08:57:13;100181.27;;;15.82;36.58
78841;BME280;68379;47.190;27.558;2023-05-07T08:59:43;100174.63;;;15.76;37.43
78841;BME280;68379;47.190;27.558;2023-05-07T09:02:13;100173.68;;;15.57;37.14
78841;BME280;68379;47.190;27.558;2023-05-07T09:04:43;100180.73;;;15.39;37.97
78841;BME280;68379;47.190;27.558;2023-05-07T09:07:12;100184.82;;;15.29;38.42
78841;BME280;68379;47.190;27.558;2023-05-07T09:09:42;100188.78;;;15.22;38.42
78841;BME280;68379;47.190;27.558;2023-05-07T09:12:13;100184.23;;;15.00;38.92
78841;BME280;68379;47.190;27.558;2023-05-07T09:14:42;100183.02;;;14.85;39.39
78841;BME280;68379;47.190;27.558;2023-05-07T09:17:11;100186.27;;;14.84;39.57
78841;BME280;68379;47.190;27.558;2023-05-07T09:19:41;100186.66;;;14.84;39.61
78841;BME280;68379;47.190;27.558;2023-05-07T09:22:12;100186.70;;;14.80;39.18
78841;BME280;68379;47.190;27.558;2023-05-07T09:24:41;100186.11;;;14.74;39.46
78841;BME280;68379;47.190;27.558;2023-05-07T09:27:17;100189.92;;;14.62;39.36
78841;BME280;68379;47.190;27.558;2023-05-07T09:29:47;100194.64;;;14.60;39.47
78841;BME280;68379;47.190;27.558;2023-05-07T09:32:16;100199.67;;;14.56;39.65
78841;BME280;68379;47.190;27.558;2023-05-07T09:34:46;100201.47;;;14.55;40.30
78841;BME280;68379;47.190;27.558;2023-05-07T09:37:16;100198.40;;;14.52;41.35
78841;BME280;68379;47.190;27.558;2023-05-07T09:39:47;100196.77;;;14.49;42.08
78841;BME280;68379;47.190;27.558;2023-05-07T09:42:22;100194.34;;;14.48;41.67
78841;BME280;68379;47.190;27.558;2023-05-07T09:44:53;100196.48;;;14.47;41.55
78841;BME280;68379;47.190;27.558;2023-05-07T09:47:24;100199.81;;;14.63;41.61
78841;BME280;68379;47.190;27.558;2023-05-07T09:50:00;100195.02;;;14.84;41.15
78841;BME280;68379;47.190;27.558;2023-05-07T09:52:33;100199.09;;;15.05;40.75
78841;BME280;68379;47.190;27.558;2023-05-07T09:55:04;100201.63;;;15.24;40.34
78841;BME280;68379;47.190;27.558;2023-05-07T09:57:35;100198.60;;;15.45;40.02
78841;BME280;68379;47.190;27.558;2023-05-07T10:00:09;100189.82;;;15.62;39.09
78841;BME280;68379;47.190;27.558;2023-05-07T10:02:40;100185.63;;;15.81;38.11
78841;BME280;68379;47.190;27.558;2023-05-07T10:05:17;100185.23;;;15.91;37.84
78841;BME280;68379;47.190;27.558;2023-05-07T10:07:48;100185.08;;;16.00;37.55
78841;BME280;68379;47.190;27.558;2023-05-07T10:10:18;100185.01;;;15.98;37.57
78841;BME280;68379;47.190;27.558;2023-05-07T10:12:48;100186.01;;;16.03;37.95
78841;BME280;68379;47.190;27.558;2023-05-07T10:15:17;100184.73;;;16.00;37.60
78841;BME280;68379;47.190;27.558;2023-05-07T10:17:47;100184.30;;;15.98;37.74
78841;BME280;68379;47.190;27.558;2023-05-07T10:20:17;100176.02;;;16.06;37.74
78841;BME280;68379;47.190;27.558;2023-05-07T10:22:47;100171.36;;;16.18;37.44
78841;BME280;68379;47.190;27.558;2023-05-07T10:25:21;100165.55;;;16.30;37.56
78841;BME280;68379;47.190;27.558;2023-05-07T10:27:51;100164.84;;;16.42;37.06
78841;BME280;68379;47.190;27.558;2023-05-07T10:30:32;100163.20;;;16.55;37.70
78841;BME280;68379;47.190;27.558;2023-05-07T10:33:08;100165.73;;;16.60;37.11
78841;BME280;68379;47.190;27.558;2023-05-07T10:35:38;100166.70;;;16.56;36.92
78841;BME280;68379;47.190;27.558;2023-05-07T10:38:09;100170.57;;;16.45;36.81
78841;BME280;68379;47.190;27.558;2023-05-07T10:40:39;100172.70;;;16.48;36.96
78841;BME280;68379;47.190;27.558;2023-05-07T10:43:09;100168.77;;;16.60;37.72
78841;BME280;68379;47.190;27.558;2023-05-07T10:45:38;100170.98;;;16.77;37.37
78841;BME280;68379;47.190;27.558;2023-05-07T10:48:12;100173.17;;;16.91;36.27
78841;BME280;68379;47.190;27.558;2023-05-07T10:50:42;100166.75;;;17.00;36.37
78841;BME280;68379;47.190;27.558;2023-05-07T10:53:26;100171.22;;;17.18;36.98
78841;BME280;68379;47.190;27.558;2023-05-07T10:59:36;100170.27;;;17.33;35.99
78841;BME280;68379;47.190;27.558;2023-05-07T11:02:11;100168.38;;;17.35;36.48
78841;BME280;68379;47.190;27.558;2023-05-07T11:04:42;100171.34;;;17.50;36.74
78841;BME280;68379;47.190;27.558;2023-05-07T11:07:25;100167.83;;;17.58;36.38
78841;BME280;68379;47.190;27.558;2023-05-07T11:10:03;100169.11;;;17.80;35.93
78841;BME280;68379;47.190;27.558;2023-05-07T11:12:54;100166.52;;;17.96;35.32
78841;BME280;68379;47.190;27.558;2023-05-07T11:15:49;100168.41;;;18.13;35.01
78841;BME280;68379;47.190;27.558;2023-05-07T11:18:19;100170.65;;;18.09;34.58
78841;BME280;68379;47.190;27.558;2023-05-07T11:20:55;100172.90;;;17.99;35.16
78841;BME280;68379;47.190;27.558;2023-05-07T11:23:58;100171.88;;;17.81;35.07
78841;BME280;68379;47.190;27.558;2023-05-07T11:26:29;100169.59;;;17.55;35.30
78841;BME280;68379;47.190;27.558;2023-05-07T11:28:59;100166.48;;;17.39;35.90
78841;BME280;68379;47.190;27.558;2023-05-07T11:31:28;100165.77;;;17.28;35.74
78841;BME280;68379;47.190;27.558;2023-05-07T11:33:58;100164.94;;;17.24;36.69
78841;BME280;68379;47.190;27.558;2023-05-07T11:36:30;100165.23;;;17.28;36.62
78841;BME280;68379;47.190;27.558;2023-05-07T11:39:00;100163.14;;;17.27;36.85
78841;BME280;68379;47.190;27.558;2023-05-07T11:41:36;100163.67;;;17.24;36.63
78841;BME280;68379;47.190;27.558;2023-05-07T11:44:05;100166.48;;;17.25;36.82
78841;BME280;68379;47.190;27.558;2023-05-07T11:46:35;100169.42;;;17.24;36.80
78841;BME280;68379;47.190;27.558;2023-05-07T11:49:04;100173.16;;;17.21;36.76
78841;BME280;68379;47.190;27.558;2023-05-07T11:51:33;100175.43;;;17.16;36.97
78841;BME280;68379;47.190;27.558;2023-05-07T11:54:04;100177.41;;;17.13;37.46
78841;BME280;68379;47.190;27.558;2023-05-07T11:56:36;100176.08;;;17.09;37.52
78841;BME280;68379;47.190;27.558;2023-05-07T11:59:05;100174.80;;;17.06;37.99
78841;BME280;68379;47.190;27.558;2023-05-07T12:01:36;100172.92;;;17.11;37.93
78841;BME280;68379;47.190;27.558;2023-05-07T12:04:05;100176.80;;;17.11;37.91
78841;BME280;68379;47.190;27.558;2023-05-07T12:06:38;100179.66;;;17.05;38.16
78841;BME280;68379;47.190;27.558;2023-05-07T12:09:07;100176.56;;;17.00;38.19
78841;BME280;68379;47.190;27.558;2023-05-07T12:11:40;100171.24;;;16.94;38.51
78841;BME280;68379;47.190;27.558;2023-05-07T12:14:09;100170.13;;;16.89;38.42
78841;BME280;68379;47.190;27.558;2023-05-07T12:16:39;100174.92;;;16.83;38.78
78841;BME280;68379;47.190;27.558;2023-05-07T12:19:08;100169.79;;;16.76;38.70
78841;BME280;68379;47.190;27.558;2023-05-07T12:21:40;100177.06;;;16.74;38.80
78841;BME280;68379;47.190;27.558;2023-05-07T12:24:09;100172.77;;;16.77;38.88
78841;BME280;68379;47.190;27.558;2023-05-07T12:26:39;100171.51;;;16.80;38.81
78841;BME280;68379;47.190;27.558;2023-05-07T12:29:08;100178.60;;;16.87;39.21
78841;BME280;68379;47.190;27.558;2023-05-07T12:31:41;100176.70;;;16.86;39.21
78841;BME280;68379;47.190;27.558;2023-05-07T12:34:11;100173.84;;;16.89;41.31
78841;BME280;68379;47.190;27.558;2023-05-07T12:36:40;100172.66;;;16.85;42.30
78841;BME280;68379;47.190;27.558;2023-05-07T12:39:10;100175.89;;;16.78;42.87
78841;BME280;68379;47.190;27.558;2023-05-07T12:41:54;100171.05;;;16.76;43.53
78841;BME280;68379;47.190;27.558;2023-05-07T12:44:24;100174.27;;;16.88;44.15
78841;BME280;68379;47.190;27.558;2023-05-07T12:46:53;100171.77;;;16.97;44.92
78841;BME280;68379;47.190;27.558;2023-05-07T12:49:23;100163.49;;;16.89;44.27
78841;BME280;68379;47.190;27.558;2023-05-07T12:51:54;100158.38;;;16.88;44.58
78841;BME280;68379;47.190;27.558;2023-05-07T12:54:31;100157.02;;;16.84;45.06
78841;BME280;68379;47.190;27.558;2023-05-07T12:57:05;100156.20;;;16.77;45.80
78841;BME280;68379;47.190;27.558;2023-05-07T12:59:35;100156.30;;;16.75;46.30
78841;BME280;68379;47.190;27.558;2023-05-07T13:02:05;100157.36;;;16.78;46.32
78841;BME280;68379;47.190;27.558;2023-05-07T13:04:34;100158.50;;;16.74;47.50
78841;BME280;68379;47.190;27.558;2023-05-07T13:07:04;100163.16;;;16.55;47.11
78841;BME280;68379;47.190;27.558;2023-05-07T13:09:33;100160.08;;;16.32;47.84
78841;BME280;68379;47.190;27.558;2023-05-07T13:12:02;100162.11;;;16.09;48.03
78841;BME280;68379;47.190;27.558;2023-05-07T13:14:32;100160.74;;;15.99;48.82
78841;BME280;68379;47.190;27.558;2023-05-07T13:17:01;100152.99;;;16.00;48.70
78841;BME280;68379;47.190;27.558;2023-05-07T13:19:30;100148.98;;;15.99;49.95
78841;BME280;68379;47.190;27.558;2023-05-07T13:21:59;100146.67;;;16.04;49.91
78841;BME280;68379;47.190;27.558;2023-05-07T13:24:28;100146.59;;;16.12;49.34
78841;BME280;68379;47.190;27.558;2023-05-07T13:26:57;100144.98;;;16.22;50.04
78841;BME280;68379;47.190;27.558;2023-05-07T13:29:25;100143.45;;;16.24;50.85
78841;BME280;68379;47.190;27.558;2023-05-07T13:31:58;100144.88;;;16.14;49.66
78841;BME280;68379;47.190;27.558;2023-05-07T13:34:28;100139.21;;;16.01;50.34
78841;BME280;68379;47.190;27.558;2023-05-07T13:36:57;100142.04;;;15.86;49.42
78841;BME280;68379;47.190;27.558;2023-05-07T13:39:26;100140.67;;;15.75;49.78
78841;BME280;68379;47.190;27.558;2023-05-07T13:41:55;100139.86;;;15.64;49.60
78841;BME280;68379;47.190;27.558;2023-05-07T13:44:24;100137.83;;;15.55;50.34
78841;BME280;68379;47.190;27.558;2023-05-07T13:46:53;100136.06;;;15.49;49.83
78841;BME280;68379;47.190;27.558;2023-05-07T13:49:22;100134.73;;;15.34;50.77
78841;BME280;68379;47.190;27.558;2023-05-07T13:51:52;100138.64;;;15.17;51.26
78841;BME280;68379;47.190;27.558;2023-05-07T13:54:21;100143.95;;;15.05;50.73
78841;BME280;68379;47.190;27.558;2023-05-07T13:56:50;100140.75;;;14.91;51.66
78841;BME280;68379;47.190;27.558;2023-05-07T13:59:19;100144.78;;;14.78;52.60
78841;BME280;68379;47.190;27.558;2023-05-07T14:01:48;100147.07;;;14.69;52.29
78841;BME280;68379;47.190;27.558;2023-05-07T14:04:17;100146.54;;;14.62;53.22
78841;BME280;68379;47.190;27.558;2023-05-07T14:06:46;100151.66;;;14.48;53.13
78841;BME280;68379;47.190;27.558;2023-05-07T14:09:15;100153.76;;;14.38;53.72
78841;BME280;68379;47.190;27.558;2023-05-07T14:11:44;100153.98;;;14.34;54.20
78841;BME280;68379;47.190;27.558;2023-05-07T14:14:15;100154.86;;;14.26;55.11
78841;BME280;68379;47.190;27.558;2023-05-07T14:16:44;100151.42;;;14.21;55.35
78841;BME280;68379;47.190;27.558;2023-05-07T14:19:13;100153.88;;;14.17;55.49
78841;BME280;68379;47.190;27.558;2023-05-07T14:21:43;100155.81;;;14.14;55.91
78841;BME280;68379;47.190;27.558;2023-05-07T14:24:12;100161.71;;;14.14;55.63
78841;BME280;68379;47.190;27.558;2023-05-07T14:26:41;100171.02;;;14.12;55.73
78841;BME280;68379;47.190;27.558;2023-05-07T14:29:09;100173.60;;;14.11;55.89
78841;BME280;68379;47.190;27.558;2023-05-07T14:31:38;100180.95;;;14.09;55.98
78841;BME280;68379;47.190;27.558;2023-05-07T14:34:07;100184.91;;;14.07;56.11
78841;BME280;68379;47.190;27.558;2023-05-07T14:36:36;100191.61;;;14.05;56.09
78841;BME280;68379;47.190;27.558;2023-05-07T14:39:05;100198.80;;;13.99;57.07
78841;BME280;68379;47.190;27.558;2023-05-07T14:41:34;100200.92;;;13.89;57.30
78841;BME280;68379;47.190;27.558;2023-05-07T14:44:04;100197.67;;;13.79;59.13
78841;BME280;68379;47.190;27.558;2023-05-07T14:46:33;100198.05;;;13.67;59.63
78841;BME280;68379;47.190;27.558;2023-05-07T14:49:02;100200.61;;;13.57;60.51
78841;BME280;68379;47.190;27.558;2023-05-07T14:51:31;100200.40;;;13.47;60.81
78841;BME280;68379;47.190;27.558;2023-05-07T14:54:01;100200.33;;;13.37;61.93
78841;BME280;68379;47.190;27.558;2023-05-07T14:56:31;100205.63;;;13.29;62.83
78841;BME280;68379;47.190;27.558;2023-05-07T14:59:00;100201.88;;;13.17;62.77
78841;BME280;68379;47.190;27.558;2023-05-07T15:01:29;100203.04;;;13.06;63.34
78841;BME280;68379;47.190;27.558;2023-05-07T15:03:58;100203.45;;;12.97;63.61
78841;BME280;68379;47.190;27.558;2023-05-07T15:06:26;100198.83;;;12.85;64.66
78841;BME280;68379;47.190;27.558;2023-05-07T15:08:55;100198.89;;;12.75;63.62
78841;BME280;68379;47.190;27.558;2023-05-07T15:11:24;100204.25;;;12.70;67.21
78841;BME280;68379;47.190;27.558;2023-05-07T15:13:54;100205.55;;;12.56;67.04
78841;BME280;68379;47.190;27.558;2023-05-07T15:16:23;100206.52;;;12.46;66.81
78841;BME280;68379;47.190;27.558;2023-05-07T15:18:52;100212.16;;;12.37;65.54
78841;BME280;68379;47.190;27.558;2023-05-07T15:21:21;100215.03;;;12.32;67.51
78841;BME280;68379;47.190;27.558;2023-05-07T15:23:50;100216.64;;;12.23;66.72
78841;BME280;68379;47.190;27.558;2023-05-07T15:26:20;100219.92;;;12.16;68.39
78841;BME280;68379;47.190;27.558;2023-05-07T15:28:49;100217.70;;;12.10;67.60
78841;BME280;68379;47.190;27.558;2023-05-07T15:31:18;100216.34;;;12.04;68.56
78841;BME280;68379;47.190;27.558;2023-05-07T15:33:46;100210.15;;;12.00;69.70
78841;BME280;68379;47.190;27.558;2023-05-07T15:36:16;100211.52;;;11.91;71.08
78841;BME280;68379;47.190;27.558;2023-05-07T15:38:45;100212.89;;;11.78;70.49
78841;BME280;68379;47.190;27.558;2023-05-07T15:41:14;100218.27;;;11.67;70.18
78841;BME280;68379;47.190;27.558;2023-05-07T15:43:46;100224.66;;;11.57;71.71
78841;BME280;68379;47.190;27.558;2023-05-07T15:46:19;100225.79;;;11.45;73.40
78841;BME280;68379;47.190;27.558;2023-05-07T15:48:49;100229.42;;;11.33;73.33
78841;BME280;68379;47.190;27.558;2023-05-07T15:51:18;100232.81;;;11.23;74.55
78841;BME280;68379;47.190;27.558;2023-05-07T15:53:48;100234.08;;;11.17;74.02
78841;BME280;68379;47.190;27.558;2023-05-07T15:56:19;100235.42;;;11.13;74.32
78841;BME280;68379;47.190;27.558;2023-05-07T15:58:48;100233.09;;;11.10;75.98
78841;BME280;68379;47.190;27.558;2023-05-07T16:01:17;100230.70;;;11.07;76.30
78841;BME280;68379;47.190;27.558;2023-05-07T16:03:46;100227.53;;;11.02;77.51
78841;BME280;68379;47.190;27.558;2023-05-07T16:06:15;100227.21;;;10.96;76.95
78841;BME280;68379;47.190;27.558;2023-05-07T16:08:44;100223.84;;;10.91;75.99
78841;BME280;68379;47.190;27.558;2023-05-07T16:11:13;100222.35;;;10.88;77.13
78841;BME280;68379;47.190;27.558;2023-05-07T16:13:43;100217.07;;;10.83;77.23
78841;BME280;68379;47.190;27.558;2023-05-07T16:16:12;100217.15;;;10.80;78.37
78841;BME280;68379;47.190;27.558;2023-05-07T16:18:41;100216.64;;;10.75;77.18
78841;BME280;68379;47.190;27.558;2023-05-07T16:21:10;100222.74;;;10.71;75.78
78841;BME280;68379;47.190;27.558;2023-05-07T16:23:39;100230.50;;;10.66;77.51
78841;BME280;68379;47.190;27.558;2023-05-07T16:26:08;100231.41;;;10.61;76.78
78841;BME280;68379;47.190;27.558;2023-05-07T16:28:37;100234.35;;;10.57;76.81
78841;BME280;68379;47.190;27.558;2023-05-07T16:31:08;100232.16;;;10.54;77.22
78841;BME280;68379;47.190;27.558;2023-05-07T16:33:37;100230.22;;;10.48;77.76
78841;BME280;68379;47.190;27.558;2023-05-07T16:36:07;100231.02;;;10.45;76.98
78841;BME280;68379;47.190;27.558;2023-05-07T16:38:36;100234.46;;;10.43;77.63
78841;BME280;68379;47.190;27.558;2023-05-07T16:41:05;100241.13;;;10.39;76.91
78841;BME280;68379;47.190;27.558;2023-05-07T16:43:35;100246.18;;;10.36;76.44
78841;BME280;68379;47.190;27.558;2023-05-07T16:46:04;100247.27;;;10.35;76.89
78841;BME280;68379;47.190;27.558;2023-05-07T16:48:33;100253.18;;;10.32;77.62
78841;BME280;68379;47.190;27.558;2023-05-07T16:51:02;100258.42;;;10.27;78.36
78841;BME280;68379;47.190;27.558;2023-05-07T16:53:31;100260.09;;;10.19;77.03
78841;BME280;68379;47.190;27.558;2023-05-07T16:56:05;100268.41;;;10.13;77.80
78841;BME280;68379;47.190;27.558;2023-05-07T16:58:35;100271.83;;;10.05;78.92
78841;BME280;68379;47.190;27.558;2023-05-07T17:01:04;100274.86;;;9.98;78.66
78841;BME280;68379;47.190;27.558;2023-05-07T17:03:34;100272.02;;;9.93;79.40
78841;BME280;68379;47.190;27.558;2023-05-07T17:06:03;100264.08;;;9.86;79.54
78841;BME280;68379;47.190;27.558;2023-05-07T17:08:41;100264.89;;;9.83;80.06
78841;BME280;68379;47.190;27.558;2023-05-07T17:11:10;100262.02;;;9.79;80.48
78841;BME280;68379;47.190;27.558;2023-05-07T17:13:39;100261.80;;;9.74;79.53
78841;BME280;68379;47.190;27.558;2023-05-07T17:16:08;100261.88;;;9.71;79.18
78841;BME280;68379;47.190;27.558;2023-05-07T17:18:37;100257.44;;;9.66;79.37
78841;BME280;68379;47.190;27.558;2023-05-07T17:21:06;100255.44;;;9.62;80.82
78841;BME280;68379;47.190;27.558;2023-05-07T17:23:35;100257.80;;;9.53;81.19
78841;BME280;68379;47.190;27.558;2023-05-07T17:26:04;100249.63;;;9.49;80.82
78841;BME280;68379;47.190;27.558;2023-05-07T17:28:40;100252.50;;;9.48;80.97
78841;BME280;68379;47.190;27.558;2023-05-07T17:31:09;100258.15;;;9.47;81.91
78841;BME280;68379;47.190;27.558;2023-05-07T17:33:38;100264.73;;;9.45;81.11
78841;BME280;68379;47.190;27.558;2023-05-07T17:36:07;100273.53;;;9.46;80.46
78841;BME280;68379;47.190;27.558;2023-05-07T17:38:36;100277.52;;;9.48;80.14
78841;BME280;68379;47.190;27.558;2023-05-07T17:41:05;100279.61;;;9.49;80.87
78841;BME280;68379;47.190;27.558;2023-05-07T17:43:34;100277.80;;;9.44;81.81
78841;BME280;68379;47.190;27.558;2023-05-07T17:46:03;100280.90;;;9.41;81.30
78841;BME280;68379;47.190;27.558;2023-05-07T17:48:32;100283.55;;;9.41;80.65
78841;BME280;68379;47.190;27.558;2023-05-07T17:51:04;100282.00;;;9.39;80.78
78841;BME280;68379;47.190;27.558;2023-05-07T17:53:33;100286.98;;;9.38;80.79
78841;BME280;68379;47.190;27.558;2023-05-07T17:56:02;100281.90;;;9.37;81.07
78841;BME280;68379;47.190;27.558;2023-05-07T17:58:31;100275.08;;;9.35;81.18
78841;BME280;68379;47.190;27.558;2023-05-07T18:01:00;100268.41;;;9.34;81.37
78841;BME280;68379;47.190;27.558;2023-05-07T18:03:29;100267.94;;;9.31;81.41
78841;BME280;68379;47.190;27.558;2023-05-07T18:05:58;100274.48;;;9.31;81.55
78841;BME280;68379;47.190;27.558;2023-05-07T18:08:27;100287.67;;;9.32;81.28
78841;BME280;68379;47.190;27.558;2023-05-07T18:10:56;100299.45;;;9.33;80.75
78841;BME280;68379;47.190;27.558;2023-05-07T18:13:26;100298.78;;;9.32;80.08
78841;BME280;68379;47.190;27.558;2023-05-07T18:15:55;100298.95;;;9.32;80.56
78841;BME280;68379;47.190;27.558;2023-05-07T18:18:24;100300.06;;;9.31;81.03
78841;BME280;68379;47.190;27.558;2023-05-07T18:20:57;100307.00;;;9.28;80.88
78841;BME280;68379;47.190;27.558;2023-05-07T18:23:26;100303.20;;;9.25;80.37
78841;BME280;68379;47.190;27.558;2023-05-07T18:25:55;100306.63;;;9.22;80.10
78841;BME280;68379;47.190;27.558;2023-05-07T18:28:24;100300.98;;;9.22;80.29
78841;BME280;68379;47.190;27.558;2023-05-07T18:30:53;100305.45;;;9.20;79.93
78841;BME280;68379;47.190;27.558;2023-05-07T18:33:22;100306.35;;;9.19;81.21
78841;BME280;68379;47.190;27.558;2023-05-07T18:35:51;100312.93;;;9.17;81.66
78841;BME280;68379;47.190;27.558;2023-05-07T18:38:20;100310.36;;;9.14;81.02
78841;BME280;68379;47.190;27.558;2023-05-07T18:40:49;100311.88;;;9.17;81.20
78841;BME280;68379;47.190;27.558;2023-05-07T18:43:19;100316.70;;;9.21;81.08
78841;BME280;68379;47.190;27.558;2023-05-07T18:45:48;100318.56;;;9.24;80.53
78841;BME280;68379;47.190;27.558;2023-05-07T18:48:17;100322.08;;;9.24;81.16
78841;BME280;68379;47.190;27.558;2023-05-07T18:50:46;100322.34;;;9.21;80.93
78841;BME280;68379;47.190;27.558;2023-05-07T18:53:16;100317.11;;;9.18;80.78
78841;BME280;68379;47.190;27.558;2023-05-07T18:55:50;100318.06;;;9.16;81.12
78841;BME280;68379;47.190;27.558;2023-05-07T18:58:19;100317.90;;;9.16;81.06
78841;BME280;68379;47.190;27.558;2023-05-07T19:00:48;100318.61;;;9.16;81.00
78841;BME280;68379;47.190;27.558;2023-05-07T19:03:18;100321.05;;;9.16;80.35
78841;BME280;68379;47.190;27.558;2023-05-07T19:05:47;100324.05;;;9.16;80.09
78841;BME280;68379;47.190;27.558;2023-05-07T19:08:16;100319.51;;;9.15;79.94
78841;BME280;68379;47.190;27.558;2023-05-07T19:10:45;100320.63;;;9.12;80.36
78841;BME280;68379;47.190;27.558;2023-05-07T19:13:14;100325.27;;;9.10;80.66
78841;BME280;68379;47.190;27.558;2023-05-07T19:15:44;100331.84;;;9.09;80.31
78841;BME280;68379;47.190;27.558;2023-05-07T19:18:13;100335.55;;;9.08;81.29
78841;BME280;68379;47.190;27.558;2023-05-07T19:20:42;100342.17;;;9.03;80.65
78841;BME280;68379;47.190;27.558;2023-05-07T19:23:10;100343.27;;;9.02;80.54
78841;BME280;68379;47.190;27.558;2023-05-07T19:25:39;100341.84;;;9.02;80.96
78841;BME280;68379;47.190;27.558;2023-05-07T19:28:08;100335.71;;;9.01;80.45
78841;BME280;68379;47.190;27.558;2023-05-07T19:30:38;100329.98;;;8.97;80.89
78841;BME280;68379;47.190;27.558;2023-05-07T19:33:08;100334.34;;;8.92;80.75
78841;BME280;68379;47.190;27.558;2023-05-07T19:35:37;100330.56;;;8.89;80.86
78841;BME280;68379;47.190;27.558;2023-05-07T19:38:07;100340.19;;;8.84;81.07
78841;BME280;68379;47.190;27.558;2023-05-07T19:40:36;100344.83;;;8.82;81.58
78841;BME280;68379;47.190;27.558;2023-05-07T19:43:05;100347.35;;;8.79;80.67
78841;BME280;68379;47.190;27.558;2023-05-07T19:45:34;100343.21;;;8.76;81.40
78841;BME280;68379;47.190;27.558;2023-05-07T19:48:05;100336.51;;;8.69;81.03
78841;BME280;68379;47.190;27.558;2023-05-07T19:50:34;100330.83;;;8.62;81.49
78841;BME280;68379;47.190;27.558;2023-05-07T19:53:04;100330.55;;;8.59;80.89
78841;BME280;68379;47.190;27.558;2023-05-07T19:55:33;100335.01;;;8.57;81.08
78841;BME280;68379;47.190;27.558;2023-05-07T19:58:02;100340.02;;;8.54;80.99
78841;BME280;68379;47.190;27.558;2023-05-07T20:00:31;100344.51;;;8.50;80.87
78841;BME280;68379;47.190;27.558;2023-05-07T20:03:00;100339.06;;;8.49;80.95
78841;BME280;68379;47.190;27.558;2023-05-07T20:05:29;100335.51;;;8.50;81.16
78841;BME280;68379;47.190;27.558;2023-05-07T20:07:58;100339.73;;;8.51;80.86
78841;BME280;68379;47.190;27.558;2023-05-07T20:10:29;100351.95;;;8.48;80.96
78841;BME280;68379;47.190;27.558;2023-05-07T20:12:58;100356.73;;;8.47;80.64
78841;BME280;68379;47.190;27.558;2023-05-07T20:15:28;100362.05;;;8.45;80.75
78841;BME280;68379;47.190;27.558;2023-05-07T20:17:57;100363.89;;;8.42;80.55
78841;BME280;68379;47.190;27.558;2023-05-07T20:20:26;100371.17;;;8.38;80.68
78841;BME280;68379;47.190;27.558;2023-05-07T20:22:54;100370.54;;;8.34;80.93
78841;BME280;68379;47.190;27.558;2023-05-07T20:25:24;100365.11;;;8.33;80.57
78841;BME280;68379;47.190;27.558;2023-05-07T20:27:53;100360.51;;;8.34;80.16
78841;BME280;68379;47.190;27.558;2023-05-07T20:30:22;100358.39;;;8.34;80.97
78841;BME280;68379;47.190;27.558;2023-05-07T20:32:51;100361.94;;;8.33;80.43
78841;BME280;68379;47.190;27.558;2023-05-07T20:35:20;100369.20;;;8.31;80.18
78841;BME280;68379;47.190;27.558;2023-05-07T20:37:52;100376.64;;;8.29;80.02